Time;durP1;ratioP1;P1;durP2;ratioP2;P2;SDS_P1;SDS_P2;PMS_P1;PMS_P2;Temp;Humidity;BMP_temperature;BMP_pressure;BME280_temperature;BME280_humidity;BME280_pressure;Samples;Min_cycle;Max_cycle;Signal;HPM_P1;HPM_P2
2022/05/08 00:01:58;;;;;;;6.20;5.60;;;16.80;99.90;;;;;;5067195;28;20470;-81
2022/05/08 00:04:27;;;;;;;8.83;6.40;;;16.70;99.90;;;;;;5065131;28;20450;-81
2022/05/08 00:06:55;;;;;;;5.17;4.87;;;16.70;99.90;;;;;;5060025;28;20459;-82
2022/05/08 00:09:23;;;;;;;5.83;5.30;;;16.70;99.90;;;;;;5057859;28;20461;-81
2022/05/08 00:11:53;;;;;;;5.93;5.33;;;16.60;99.90;;;;;;5066459;28;20462;-81
2022/05/08 00:14:21;;;;;;;6.00;5.40;;;16.50;99.90;;;;;;5063157;28;20457;-81
2022/05/08 00:16:49;;;;;;;5.73;5.23;;;16.60;99.90;;;;;;5062861;28;20462;-81
2022/05/08 00:19:18;;;;;;;5.90;5.40;;;16.50;99.90;;;;;;5063090;28;20489;-82
2022/05/08 00:21:46;;;;;;;6.60;5.83;;;16.50;99.90;;;;;;5067226;28;20439;-82
2022/05/08 00:24:14;;;;;;;5.87;5.30;;;16.50;99.90;;;;;;5062909;28;20842;-82
2022/05/08 00:26:42;;;;;;;5.00;4.63;;;16.50;99.90;;;;;;5063420;28;20456;-84
2022/05/08 00:29:12;;;;;;;9.73;5.67;;;16.50;99.90;;;;;;5071451;28;20531;-81
2022/05/08 00:31:40;;;;;;;6.30;5.70;;;16.50;99.90;;;;;;5067779;28;20482;-81
2022/05/08 00:34:09;;;;;;;5.90;5.40;;;16.40;99.90;;;;;;5065190;28;20505;-82
2022/05/08 00:36:40;;;;;;;6.47;5.87;;;16.40;99.90;;;;;;5067416;28;20459;-81
2022/05/08 00:39:08;;;;;;;6.53;6.03;;;16.40;99.90;;;;;;5065185;28;20481;-82
2022/05/08 00:41:36;;;;;;;5.53;5.03;;;16.30;99.90;;;;;;5064464;28;20445;-78
2022/05/08 00:44:05;;;;;;;6.27;5.33;;;16.30;99.90;;;;;;5070233;28;20473;-81
2022/05/08 00:46:34;;;;;;;7.00;6.00;;;16.30;99.90;;;;;;5068602;28;20450;-83
2022/05/08 00:49:02;;;;;;;6.30;5.70;;;16.20;99.90;;;;;;5068012;28;20439;-82
2022/05/08 00:51:31;;;;;;;6.30;5.80;;;16.20;99.90;;;;;;5067316;28;20458;-81
2022/05/08 00:54:03;;;;;;;6.60;6.00;;;16.20;99.90;;;;;;5066117;28;20478;-81
2022/05/08 00:56:32;;;;;;;6.97;5.80;;;16.20;99.90;;;;;;5068473;28;20458;-82
2022/05/08 00:59:01;;;;;;;6.40;5.80;;;16.20;99.90;;;;;;5067646;28;20477;-82
2022/05/08 01:01:29;;;;;;;6.87;5.70;;;16.10;99.90;;;;;;5060639;28;20479;-81
2022/05/08 01:03:59;;;;;;;6.57;5.97;;;16.10;99.90;;;;;;5067136;28;21016;-82
2022/05/08 01:06:28;;;;;;;6.70;6.10;;;16.10;99.90;;;;;;5065546;28;20456;-80
2022/05/08 01:08:56;;;;;;;6.83;6.20;;;16.10;99.90;;;;;;5064189;28;20788;-80
2022/05/08 01:11:24;;;;;;;7.40;6.70;;;16.10;99.90;;;;;;5065488;28;20457;-81
2022/05/08 01:13:53;;;;;;;7.40;6.70;;;16.10;99.90;;;;;;5067595;28;20973;-82
2022/05/08 01:16:22;;;;;;;10.10;6.93;;;16.10;99.90;;;;;;5065066;28;20453;-81
2022/05/08 01:18:51;;;;;;;7.93;6.97;;;16.10;99.90;;;;;;5067375;28;20471;-81
2022/05/08 01:21:29;;;;;;;9.13;7.30;;;16.00;99.90;;;;;;5064320;28;20953;-81
2022/05/08 01:23:57;;;;;;;8.47;7.63;;;16.00;99.90;;;;;;5065274;28;20473;-81
2022/05/08 01:26:26;;;;;;;8.40;7.27;;;15.90;99.90;;;;;;5062055;28;20446;-81
2022/05/08 01:28:54;;;;;;;8.17;6.97;;;16.00;99.90;;;;;;5068538;28;20530;-82
2022/05/08 01:31:22;;;;;;;9.47;8.57;;;15.90;99.90;;;;;;5061466;28;20470;-83
2022/05/08 01:33:50;;;;;;;7.70;6.90;;;15.90;99.90;;;;;;5067312;28;20491;-81
2022/05/08 01:36:19;;;;;;;7.97;7.23;;;15.90;99.90;;;;;;5061022;28;20552;-80
2022/05/08 01:38:48;;;;;;;8.13;6.60;;;15.80;99.90;;;;;;5061894;28;20474;-81
2022/05/08 01:41:17;;;;;;;9.07;7.30;;;15.80;99.90;;;;;;5060938;28;21087;-80
2022/05/08 01:43:45;;;;;;;8.10;7.30;;;15.80;99.90;;;;;;5059975;28;20473;-80
2022/05/08 01:46:13;;;;;;;7.97;7.20;;;15.80;99.90;;;;;;5063863;28;20465;-81
2022/05/08 01:48:40;;;;;;;9.00;7.00;;;15.80;99.90;;;;;;5064331;28;20435;-80
2022/05/08 01:51:12;;;;;;;9.20;7.80;;;15.80;99.90;;;;;;5058757;28;20874;-81
2022/05/08 01:53:41;;;;;;;7.87;7.07;;;15.80;99.90;;;;;;5059214;28;20485;-81
2022/05/08 01:56:10;;;;;;;8.80;7.83;;;15.70;99.90;;;;;;5062435;28;20451;-82
2022/05/08 01:58:38;;;;;;;8.17;7.37;;;15.70;99.90;;;;;;5058315;28;20840;-83
2022/05/08 02:01:09;;;;;;;11.40;7.87;;;15.70;99.90;;;;;;5063663;28;20984;-81
2022/05/08 02:03:39;;;;;;;10.47;9.17;;;15.70;99.90;;;;;;5069308;28;20487;-81
2022/05/08 02:06:07;;;;;;;10.40;8.20;;;15.60;99.90;;;;;;5065101;28;20445;-81
2022/05/08 02:08:36;;;;;;;10.37;8.00;;;15.60;99.90;;;;;;5064106;28;20450;-81
2022/05/08 02:11:05;;;;;;;13.10;9.17;;;15.60;99.90;;;;;;5063501;28;20526;-81
2022/05/08 02:13:35;;;;;;;9.47;7.30;;;15.70;99.90;;;;;;5059794;28;20481;-81
2022/05/08 02:16:04;;;;;;;8.53;7.57;;;15.60;99.90;;;;;;5064341;28;21005;-82
2022/05/08 02:18:33;;;;;;;8.97;8.00;;;15.60;99.90;;;;;;5066486;28;20527;-80
2022/05/08 02:21:01;;;;;;;9.10;7.43;;;15.50;99.90;;;;;;5063657;28;21187;-81
2022/05/08 02:23:29;;;;;;;7.83;6.80;;;15.50;99.90;;;;;;5063822;28;21148;-78
2022/05/08 02:25:57;;;;;;;9.47;7.10;;;15.50;99.90;;;;;;5068420;28;20464;-81
2022/05/08 02:28:25;;;;;;;9.00;8.10;;;15.50;99.90;;;;;;5066014;28;20960;-80
2022/05/08 02:30:55;;;;;;;9.03;7.63;;;15.50;99.90;;;;;;5061822;28;20513;-81
2022/05/08 02:33:23;;;;;;;7.87;6.73;;;15.50;99.90;;;;;;5064978;28;20477;-81
2022/05/08 02:35:51;;;;;;;8.10;7.03;;;15.50;99.90;;;;;;5067259;28;20799;-80
2022/05/08 02:38:20;;;;;;;7.10;6.40;;;15.40;99.90;;;;;;5062788;28;20486;-81
2022/05/08 02:40:48;;;;;;;7.60;6.90;;;15.40;99.90;;;;;;5064695;28;20475;-81
2022/05/08 02:43:20;;;;;;;7.50;6.53;;;15.50;99.90;;;;;;5063363;28;20552;-82
2022/05/08 02:45:48;;;;;;;7.20;6.47;;;15.50;99.90;;;;;;5062689;28;20946;-82
2022/05/08 02:48:18;;;;;;;6.93;6.23;;;15.40;99.90;;;;;;5066794;28;20449;-81
2022/05/08 02:50:46;;;;;;;8.30;6.43;;;15.30;99.90;;;;;;5065871;28;20456;-81
2022/05/08 02:53:15;;;;;;;7.50;6.80;;;15.20;99.90;;;;;;5062081;28;20500;-80
2022/05/08 02:58:34;;;;;;;7.07;5.97;;;15.30;99.90;;;;;;5062216;28;20477;-81
2022/05/08 03:01:05;;;;;;;9.50;7.27;;;15.30;99.90;;;;;;5068134;28;20477;-82
2022/05/08 03:03:36;;;;;;;7.27;6.63;;;15.30;99.90;;;;;;5068967;28;20517;-81
2022/05/08 03:06:05;;;;;;;7.27;6.63;;;15.30;99.90;;;;;;5068006;28;20542;-83
2022/05/08 03:08:34;;;;;;;6.67;6.17;;;15.30;99.90;;;;;;5065884;28;20453;-83
2022/05/08 03:13:48;;;;;;;7.60;6.90;;;15.20;99.90;;;;;;5068895;28;20493;-83
2022/05/08 03:16:17;;;;;;;7.27;6.60;;;15.10;99.90;;;;;;5067054;28;20453;-83
2022/05/08 03:18:47;;;;;;;6.93;6.33;;;15.10;99.90;;;;;;5071462;28;20487;-83
2022/05/08 03:21:16;;;;;;;6.40;5.80;;;15.10;99.90;;;;;;5064145;28;20469;-81
2022/05/08 03:23:45;;;;;;;7.47;6.77;;;15.10;99.90;;;;;;5072960;28;20476;-83
2022/05/08 03:26:14;;;;;;;8.77;6.83;;;15.00;99.90;;;;;;5067806;28;20469;-81
2022/05/08 03:28:43;;;;;;;6.30;5.70;;;15.00;99.90;;;;;;5067213;28;20835;-83
2022/05/08 03:31:12;;;;;;;8.40;6.50;;;15.00;99.90;;;;;;5061087;28;21267;-81
2022/05/08 03:33:41;;;;;;;6.80;6.17;;;15.00;99.90;;;;;;5066898;28;20483;-81
2022/05/08 03:36:11;;;;;;;6.77;6.13;;;15.00;99.90;;;;;;5067283;28;20452;-81
2022/05/08 03:38:43;;;;;;;7.30;5.87;;;15.00;99.90;;;;;;5069202;28;20454;-81
2022/05/08 03:41:15;;;;;;;6.47;5.90;;;15.00;99.90;;;;;;5063959;28;20518;-81
2022/05/08 03:43:45;;;;;;;7.20;6.50;;;15.00;99.90;;;;;;5065843;28;20486;-80
2022/05/08 03:46:14;;;;;;;7.93;5.70;;;14.90;99.90;;;;;;5074155;28;20446;-81
2022/05/08 03:48:42;;;;;;;7.83;6.23;;;14.90;99.90;;;;;;5073798;28;20449;-82
2022/05/08 03:51:12;;;;;;;6.40;5.90;;;14.90;99.90;;;;;;5066209;28;21054;-80
2022/05/08 03:53:40;;;;;;;6.80;6.20;;;14.80;99.90;;;;;;5067189;28;20852;-80
2022/05/08 03:56:09;;;;;;;6.60;5.90;;;14.80;99.90;;;;;;5065468;28;20447;-81
2022/05/08 03:58:37;;;;;;;6.60;6.00;;;14.80;99.90;;;;;;5065417;28;20448;-81
2022/05/08 04:01:06;;;;;;;6.57;6.00;;;14.70;99.90;;;;;;5062899;28;20457;-80
2022/05/08 04:03:34;;;;;;;7.00;5.83;;;14.70;99.90;;;;;;5065798;28;20473;-81
2022/05/08 04:06:03;;;;;;;7.10;5.60;;;14.70;99.90;;;;;;5068739;28;20454;-81
2022/05/08 04:08:33;;;;;;;6.00;5.40;;;14.70;99.90;;;;;;5064954;28;20536;-80
2022/05/08 04:11:02;;;;;;;6.13;5.50;;;14.70;99.90;;;;;;5063713;28;20443;-80
2022/05/08 04:13:30;;;;;;;6.33;5.70;;;14.60;99.90;;;;;;5069135;28;21141;-80
2022/05/08 04:16:17;;;;;;;6.90;6.30;;;14.60;99.90;;;;;;5060831;28;20462;-81
2022/05/08 04:18:46;;;;;;;6.67;6.07;;;14.60;99.90;;;;;;5065381;28;20450;-81
2022/05/08 04:21:14;;;;;;;6.77;6.10;;;14.60;99.90;;;;;;5067917;28;20456;-79
2022/05/08 04:26:30;;;;;;;5.90;5.40;;;14.60;99.90;;;;;;5064412;28;20456;-82
2022/05/08 04:28:59;;;;;;;7.27;6.53;;;14.60;99.90;;;;;;5064241;28;20491;-80
2022/05/08 04:31:27;;;;;;;5.40;5.00;;;14.60;99.90;;;;;;5062732;28;21247;-80
2022/05/08 04:33:55;;;;;;;6.80;6.30;;;14.60;99.90;;;;;;5067290;28;20908;-80
2022/05/08 04:36:24;;;;;;;5.60;5.07;;;14.60;99.90;;;;;;5063887;28;20480;-80
2022/05/08 04:38:53;;;;;;;8.10;6.80;;;14.60;99.90;;;;;;5063758;28;20994;-81
2022/05/08 04:41:21;;;;;;;6.70;6.10;;;14.60;99.90;;;;;;5063622;28;20467;-79
2022/05/08 04:43:50;;;;;;;8.20;6.20;;;14.60;99.90;;;;;;5064302;28;20504;-80
2022/05/08 04:46:19;;;;;;;8.03;6.60;;;14.60;99.90;;;;;;5061497;28;20463;-81
2022/05/08 04:48:47;;;;;;;6.83;5.97;;;14.60;99.90;;;;;;5059954;28;20812;-79
2022/05/08 04:51:15;;;;;;;7.20;6.10;;;14.60;99.90;;;;;;5064998;28;20949;-79
2022/05/08 04:53:43;;;;;;;7.10;6.07;;;14.60;99.90;;;;;;5058263;28;20515;-81
2022/05/08 04:56:13;;;;;;;8.53;6.20;;;14.80;99.90;;;;;;5065517;28;20471;-80
2022/05/08 04:58:41;;;;;;;7.30;6.60;;;14.60;99.90;;;;;;5062598;28;20444;-83
2022/05/08 05:01:09;;;;;;;6.60;6.00;;;14.60;99.90;;;;;;5066550;28;20502;-81
2022/05/08 05:03:37;;;;;;;9.33;5.97;;;14.60;99.90;;;;;;5064839;28;20579;-80
2022/05/08 05:06:06;;;;;;;8.77;6.43;;;14.60;99.90;;;;;;5064532;28;20827;-82
2022/05/08 05:08:34;;;;;;;6.97;6.20;;;14.60;99.90;;;;;;5062188;28;20797;-80
2022/05/08 05:11:02;;;;;;;6.90;5.97;;;14.60;99.90;;;;;;5065334;28;21325;-79
2022/05/08 05:13:32;;;;;;;6.67;6.03;;;14.50;99.90;;;;;;5066531;28;20478;-80
2022/05/08 05:16:00;;;;;;;5.97;5.47;;;14.60;99.90;;;;;;5065620;28;20470;-80
2022/05/08 05:18:28;;;;;;;6.20;5.60;;;14.60;99.90;;;;;;5064018;28;20456;-80
2022/05/08 05:20:56;;;;;;;8.30;6.27;;;14.60;99.90;;;;;;5062805;28;20817;-79
2022/05/08 05:23:25;;;;;;;9.93;6.63;;;14.60;99.90;;;;;;5059121;28;20492;-80
2022/05/08 05:25:53;;;;;;;7.90;6.60;;;14.60;99.90;;;;;;5060500;28;20444;-80
2022/05/08 05:28:21;;;;;;;7.60;6.90;;;14.50;99.90;;;;;;5062665;28;20463;-79
2022/05/08 05:30:50;;;;;;;6.10;5.70;;;14.50;99.90;;;;;;5063674;28;20448;-80
2022/05/08 05:33:20;;;;;;;8.23;6.50;;;14.50;99.90;;;;;;5059852;28;20581;-77
2022/05/08 05:35:48;;;;;;;6.70;6.10;;;14.40;99.90;;;;;;5056368;28;20468;-79
2022/05/08 05:38:16;;;;;;;7.37;6.77;;;14.30;99.90;;;;;;5057815;28;20525;-80
2022/05/08 05:40:44;;;;;;;8.43;6.90;;;14.40;99.90;;;;;;5064201;28;20476;-79
2022/05/08 05:43:12;;;;;;;8.63;6.90;;;14.40;99.90;;;;;;5064022;28;20553;-81
2022/05/08 05:45:41;;;;;;;7.07;6.47;;;14.50;99.90;;;;;;5060626;28;21004;-83
2022/05/08 05:48:09;;;;;;;8.87;7.40;;;14.60;99.90;;;;;;5061318;28;20493;-80
2022/05/08 05:50:38;;;;;;;7.53;6.83;;;14.70;99.90;;;;;;5065274;28;20472;-81
2022/05/08 05:53:06;;;;;;;7.73;7.10;;;14.80;99.90;;;;;;5065807;28;20919;-81
2022/05/08 05:55:34;;;;;;;8.03;6.90;;;14.70;99.90;;;;;;5057383;28;20524;-79
2022/05/08 05:58:02;;;;;;;7.13;6.43;;;14.80;99.90;;;;;;5065249;28;20461;-80
2022/05/08 06:00:30;;;;;;;7.83;7.13;;;14.70;99.90;;;;;;5056163;28;20473;-79
2022/05/08 06:02:58;;;;;;;7.70;7.07;;;14.70;99.90;;;;;;5062226;28;20473;-80
2022/05/08 06:05:28;;;;;;;6.97;6.37;;;14.70;99.90;;;;;;5061860;28;21397;-81
2022/05/08 06:07:56;;;;;;;8.23;7.20;;;14.70;99.90;;;;;;5061204;28;20453;-78
2022/05/08 06:10:25;;;;;;;9.97;7.70;;;14.80;99.90;;;;;;5061549;28;20449;-79
2022/05/08 06:12:53;;;;;;;8.73;7.33;;;14.80;99.90;;;;;;5064743;28;21011;-77
2022/05/08 06:15:21;;;;;;;7.83;7.07;;;14.90;99.90;;;;;;5064030;28;20523;-81
2022/05/08 06:17:49;;;;;;;8.57;7.87;;;14.90;99.90;;;;;;5065680;28;20453;-79
2022/05/08 06:20:18;;;;;;;8.03;7.30;;;14.90;99.90;;;;;;5062388;28;21050;-79
2022/05/08 06:22:47;;;;;;;8.37;7.57;;;14.80;99.90;;;;;;5067332;28;20478;-80
2022/05/08 06:25:15;;;;;;;8.37;7.67;;;14.70;99.90;;;;;;5061477;28;20463;-78
2022/05/08 06:27:44;;;;;;;8.50;7.27;;;14.60;99.90;;;;;;5059526;28;20475;-80
2022/05/08 06:30:13;;;;;;;9.40;8.50;;;14.70;99.90;;;;;;5057685;28;20465;-79
2022/05/08 06:32:41;;;;;;;7.73;7.03;;;14.70;99.90;;;;;;5057186;28;20478;-80
2022/05/08 06:35:29;;;;;;;8.77;7.27;;;14.70;99.90;;;;;;5058381;28;20465;-79
2022/05/08 06:37:59;;;;;;;8.43;7.57;;;14.80;99.90;;;;;;5063579;28;20813;-80
2022/05/08 06:40:27;;;;;;;7.97;7.27;;;14.80;99.90;;;;;;5065195;28;21220;-79
2022/05/08 06:42:55;;;;;;;7.10;6.50;;;15.00;99.90;;;;;;5064851;28;20483;-79
2022/05/08 06:45:24;;;;;;;8.23;7.33;;;15.20;99.90;;;;;;5061473;28;20452;-80
2022/05/08 06:47:53;;;;;;;7.73;7.03;;;14.80;99.90;;;;;;5062816;28;20894;-79
2022/05/08 06:50:21;;;;;;;7.73;6.93;;;15.30;99.90;;;;;;5065547;28;20453;-79
2022/05/08 06:52:49;;;;;;;8.07;7.37;;;15.30;99.90;;;;;;5062228;28;20483;-78
2022/05/08 06:55:19;;;;;;;8.23;7.43;;;15.30;99.90;;;;;;5061794;28;20457;-79
2022/05/08 06:57:47;;;;;;;12.70;8.47;;;15.40;99.90;;;;;;5063831;28;20532;-79
2022/05/08 07:03:04;;;;;;;9.30;8.17;;;15.70;99.90;;;;;;5063670;28;20472;-80
2022/05/08 07:05:33;;;;;;;8.97;8.07;;;15.80;99.90;;;;;;5061623;28;20465;-80
2022/05/08 07:08:01;;;;;;;8.40;7.60;;;15.90;99.90;;;;;;5064098;28;20845;-80
2022/05/08 07:10:30;;;;;;;8.30;7.43;;;16.00;99.90;;;;;;5063096;28;20443;-79
2022/05/08 07:12:59;;;;;;;8.17;7.10;;;16.10;99.90;;;;;;5061203;28;20504;-80
2022/05/08 07:15:27;;;;;;;9.50;8.07;;;16.20;99.90;;;;;;5063741;28;20450;-81
2022/05/08 07:18:15;;;;;;;9.80;8.33;;;16.30;99.90;;;;;;5060691;28;20456;-79
2022/05/08 07:20:44;;;;;;;9.50;8.60;;;16.40;99.90;;;;;;5060874;28;20458;-79
2022/05/08 07:23:12;;;;;;;8.77;7.87;;;16.40;99.90;;;;;;5065761;28;20584;-79
2022/05/08 07:25:42;;;;;;;9.20;8.23;;;16.50;99.90;;;;;;5063984;28;20456;-80
2022/05/08 07:28:10;;;;;;;10.10;7.97;;;16.60;99.90;;;;;;5064507;28;20475;-79
2022/05/08 07:30:39;;;;;;;9.57;8.03;;;16.70;99.90;;;;;;5060480;28;20444;-79
2022/05/08 07:33:07;;;;;;;8.90;8.10;;;16.80;99.90;;;;;;5064673;28;21001;-80
2022/05/08 07:38:28;;;;;;;8.60;7.77;;;17.00;99.90;;;;;;5067054;28;20560;-78
2022/05/08 07:41:02;;;;;;;7.77;7.17;;;17.00;99.90;;;;;;5064305;28;20471;-78
2022/05/08 07:43:30;;;;;;;8.40;7.60;;;17.10;99.90;;;;;;5057234;28;20531;-77
2022/05/08 07:45:59;;;;;;;9.60;8.23;;;17.20;99.90;;;;;;5064588;28;20449;-79
2022/05/08 07:48:28;;;;;;;8.40;7.60;;;17.20;99.90;;;;;;5064667;28;20462;-80
2022/05/08 07:50:59;;;;;;;7.50;6.70;;;17.30;99.90;;;;;;5061145;28;20560;-79
2022/05/08 07:53:28;;;;;;;8.67;7.00;;;17.30;99.90;;;;;;5060747;28;20488;-78
2022/05/08 07:55:57;;;;;;;7.27;6.60;;;17.40;99.90;;;;;;5059465;28;20465;-79
2022/05/08 07:58:31;;;;;;;9.03;7.77;;;17.40;99.90;;;;;;5059311;28;20463;-80
2022/05/08 08:01:03;;;;;;;6.87;6.27;;;17.50;99.90;;;;;;5057607;28;20471;-80
2022/05/08 08:03:33;;;;;;;8.67;7.87;;;17.60;99.90;;;;;;5060988;28;20481;-79
2022/05/08 08:06:02;;;;;;;5.90;5.30;;;17.60;99.90;;;;;;5061456;28;20458;-78
2022/05/08 08:08:37;;;;;;;5.53;4.77;;;17.70;99.90;;;;;;5057889;28;20464;-78
2022/05/08 08:11:06;;;;;;;5.93;5.30;;;17.80;99.90;;;;;;5049669;28;20825;-80
2022/05/08 08:13:36;;;;;;;5.70;5.20;;;17.80;99.90;;;;;;5065013;28;20254;-79
2022/05/08 08:16:06;;;;;;;5.00;4.60;;;17.90;99.90;;;;;;5066871;28;20528;-81
2022/05/08 08:18:35;;;;;;;5.80;5.30;;;18.00;99.90;;;;;;5060158;28;20458;-80
2022/05/08 08:21:09;;;;;;;5.20;4.70;;;18.00;99.90;;;;;;5064735;28;20762;-80
2022/05/08 08:23:38;;;;;;;5.17;4.77;;;18.00;99.90;;;;;;5069177;28;21001;-80
2022/05/08 08:26:08;;;;;;;5.77;5.10;;;18.10;99.90;;;;;;5067849;28;20716;-80
2022/05/08 08:28:38;;;;;;;5.17;4.77;;;18.10;99.90;;;;;;5054725;28;20572;-80
2022/05/08 08:31:07;;;;;;;4.90;4.30;;;18.20;99.90;;;;;;5065698;28;20441;-79
2022/05/08 08:33:38;;;;;;;5.47;4.97;;;18.20;99.90;;;;;;5064493;28;20916;-80
2022/05/08 08:36:08;;;;;;;5.50;4.93;;;18.30;99.90;;;;;;5065409;28;21281;-80
2022/05/08 08:38:37;;;;;;;5.53;5.10;;;18.20;99.90;;;;;;5067874;28;20454;-79
2022/05/08 08:41:07;;;;;;;5.90;5.20;;;18.20;99.90;;;;;;5062823;28;20444;-79
2022/05/08 08:49:12;;;;;;;5.40;4.90;;;18.40;99.90;;;;;;5069267;28;20488;-81
2022/05/08 08:51:42;;;;;;;5.80;5.20;;;18.40;99.90;;;;;;5069852;28;20443;-80
2022/05/08 08:54:11;;;;;;;5.83;5.33;;;18.50;99.90;;;;;;5064480;28;20590;-79
2022/05/08 08:56:39;;;;;;;5.27;4.87;;;18.50;99.90;;;;;;5071820;28;20467;-81
2022/05/08 08:59:10;;;;;;;4.13;3.73;;;18.60;99.90;;;;;;5069946;28;20458;-80
2022/05/08 09:01:43;;;;;;;5.27;4.87;;;18.70;99.90;;;;;;5066287;28;20480;-80
2022/05/08 09:04:13;;;;;;;6.40;4.40;;;18.70;99.90;;;;;;5066606;28;20462;-79
2022/05/08 09:06:42;;;;;;;5.77;5.27;;;18.80;99.90;;;;;;5065227;28;20455;-79
2022/05/08 09:09:24;;;;;;;4.73;4.30;;;18.90;99.90;;;;;;5062640;28;20606;-79
2022/05/08 09:11:54;;;;;;;5.70;5.17;;;18.90;99.90;;;;;;5064995;28;20437;-78
2022/05/08 09:14:31;;;;;;;5.07;4.57;;;18.90;99.90;;;;;;5058634;28;20839;-80
2022/05/08 09:17:00;;;;;;;5.40;4.90;;;19.10;99.90;;;;;;5060266;28;20537;-80
2022/05/08 09:19:34;;;;;;;5.60;5.10;;;19.10;99.90;;;;;;5059852;28;20469;-80
2022/05/08 09:22:04;;;;;;;4.40;4.10;;;19.20;99.90;;;;;;5063998;28;20508;-79
2022/05/08 09:24:32;;;;;;;7.30;4.47;;;19.20;99.90;;;;;;5063330;28;20446;-80
2022/05/08 09:27:12;;;;;;;5.80;5.20;;;19.30;99.90;;;;;;5059082;28;20470;-78
2022/05/08 09:29:41;;;;;;;5.73;5.00;;;19.40;99.90;;;;;;5059702;28;20458;-80
2022/05/08 09:32:37;;;;;;;5.27;4.80;;;19.40;99.90;;;;;;5062866;28;20474;-79
2022/05/08 09:35:06;;;;;;;5.80;5.40;;;19.50;99.90;;;;;;5062750;28;20454;-84
2022/05/08 09:37:35;;;;;;;4.73;4.30;;;19.60;99.90;;;;;;5063660;28;20829;-82
2022/05/08 09:40:17;;;;;;;5.20;4.70;;;19.60;99.90;;;;;;5080996;28;20458;-84
2022/05/08 09:42:46;;;;;;;5.47;4.97;;;19.60;99.90;;;;;;5059778;28;20510;-80
2022/05/08 09:45:16;;;;;;;5.37;4.87;;;19.70;99.90;;;;;;5062575;28;20456;-79
2022/05/08 09:47:46;;;;;;;9.03;6.20;;;19.70;99.90;;;;;;5060851;28;20451;-79
2022/05/08 09:50:16;;;;;;;6.80;5.20;;;19.70;99.90;;;;;;5061597;28;20512;-80
2022/05/08 09:52:46;;;;;;;8.53;5.50;;;19.70;99.90;;;;;;5058175;28;20536;-80
2022/05/08 09:55:14;;;;;;;5.63;5.00;;;19.80;99.90;;;;;;5060772;28;20569;-77
2022/05/08 09:57:43;;;;;;;5.60;5.10;;;19.80;99.90;;;;;;5059114;28;20451;-79
2022/05/08 10:00:17;;;;;;;4.40;4.00;;;19.90;99.90;;;;;;5063292;28;20458;-80
2022/05/08 10:02:46;;;;;;;4.90;4.13;;;19.80;99.90;;;;;;5062329;28;21030;-80
2022/05/08 10:05:16;;;;;;;4.07;3.70;;;19.90;99.90;;;;;;5068975;28;20509;-80
2022/05/08 10:07:45;;;;;;;4.07;3.70;;;20.00;99.90;;;;;;5066124;28;20508;-81
2022/05/08 10:15:48;;;;;;;5.67;4.40;;;20.20;99.90;;;;;;5058969;28;20454;-79
2022/05/08 10:18:28;;;;;;;3.83;3.47;;;20.20;99.90;;;;;;5061021;28;20504;-79
2022/05/08 10:21:01;;;;;;;4.37;3.30;;;20.20;99.90;;;;;;5056653;28;20450;-79
2022/05/08 10:23:40;;;;;;;3.10;2.90;;;20.30;99.90;;;;;;5059080;28;20508;-79
2022/05/08 10:26:19;;;;;;;4.47;4.03;;;20.30;99.90;;;;;;5056386;28;20450;-79
2022/05/08 10:29:11;;;;;;;4.10;3.70;;;20.40;99.90;;;;;;5061075;28;20466;-80
2022/05/08 10:31:46;;;;;;;4.50;4.10;;;20.50;99.90;;;;;;5063057;28;20466;-79
2022/05/08 10:34:15;;;;;;;4.03;3.73;;;20.40;99.90;;;;;;5059822;28;20470;-80
2022/05/08 10:37:26;;;;;;;3.10;2.90;;;20.60;99.90;;;;;;5063950;28;20454;-80
2022/05/08 10:39:55;;;;;;;3.10;2.90;;;20.60;99.90;;;;;;5058895;28;20486;-80
2022/05/08 10:42:45;;;;;;;2.80;2.60;;;20.60;99.90;;;;;;5058016;28;20483;-80
2022/05/08 10:45:41;;;;;;;3.23;2.93;;;20.60;99.90;;;;;;5058152;28;20455;-81
2022/05/08 10:48:13;;;;;;;3.87;3.47;;;20.60;99.90;;;;;;5058000;28;20473;-80
2022/05/08 10:50:44;;;;;;;3.33;3.10;;;20.60;99.90;;;;;;5058040;28;21130;-80
2022/05/08 10:53:24;;;;;;;4.00;3.10;;;20.60;99.90;;;;;;5058150;28;20540;-79
2022/05/08 10:55:53;;;;;;;3.33;3.13;;;20.60;99.90;;;;;;5058295;28;20524;-80
2022/05/08 10:58:21;;;;;;;3.40;3.10;;;20.80;99.90;;;;;;5062545;28;20545;-80
2022/05/08 11:00:50;;;;;;;5.57;4.47;;;20.80;99.90;;;;;;5060893;28;20446;-79
2022/05/08 11:03:26;;;;;;;4.70;4.30;;;20.80;99.90;;;;;;5059961;28;20474;-79
2022/05/08 11:05:54;;;;;;;4.50;3.83;;;20.80;99.90;;;;;;5063108;28;20461;-79
2022/05/08 11:08:24;;;;;;;4.30;3.90;;;20.90;99.90;;;;;;5055818;28;20498;-79
2022/05/08 11:11:04;;;;;;;4.50;4.10;;;20.90;99.90;;;;;;5057038;28;20516;-79
2022/05/08 11:13:41;;;;;;;7.67;5.03;;;21.00;99.90;;;;;;5060955;28;20851;-79
2022/05/08 11:16:11;;;;;;;3.90;3.57;;;21.00;99.90;;;;;;5089405;28;20556;-79
2022/05/08 11:18:41;;;;;;;3.13;2.93;;;21.10;99.90;;;;;;5056292;28;20442;-79
2022/05/08 11:21:09;;;;;;;3.20;2.90;;;21.20;99.90;;;;;;5059506;28;20469;-80
2022/05/08 11:23:42;;;;;;;3.10;2.43;;;21.20;99.90;;;;;;5062328;28;20494;-79
2022/05/08 11:26:12;;;;;;;2.27;2.07;;;21.40;99.90;;;;;;5063828;28;20477;-79
2022/05/08 11:28:49;;;;;;;4.43;2.60;;;21.50;99.90;;;;;;5062838;28;20456;-78
2022/05/08 11:31:19;;;;;;;2.30;1.97;;;21.50;99.90;;;;;;5091963;28;20450;-78
2022/05/08 11:36:37;;;;;;;2.60;2.40;;;21.70;99.90;;;;;;5063253;28;20996;-78
2022/05/08 11:39:10;;;;;;;4.67;2.50;;;21.70;99.90;;;;;;5064170;28;20468;-78
2022/05/08 11:41:39;;;;;;;2.40;1.93;;;21.60;99.90;;;;;;5050032;28;20912;-78
2022/05/08 11:44:20;;;;;;;6.30;2.30;;;21.70;99.90;;;;;;5054593;28;20547;-78
2022/05/08 11:46:50;;;;;;;3.57;2.80;;;21.70;99.90;;;;;;5058881;28;21111;-78
2022/05/08 11:49:20;;;;;;;1.97;1.87;;;21.80;99.90;;;;;;5061668;28;20459;-78
2022/05/08 11:51:50;;;;;;;2.27;2.17;;;21.80;99.90;;;;;;5056022;28;20442;-78
2022/05/08 11:54:29;;;;;;;2.87;2.63;;;21.80;99.90;;;;;;5059655;28;20470;-78
2022/05/08 11:57:17;;;;;;;4.43;2.80;;;21.90;99.90;;;;;;5062421;28;20453;-78
2022/05/08 11:59:46;;;;;;;2.10;2.00;;;21.90;99.90;;;;;;5058832;28;20447;-77
2022/05/08 12:02:15;;;;;;;4.13;2.87;;;21.90;99.90;;;;;;5057430;28;22372;-78
2022/05/08 12:04:55;;;;;;;2.83;2.63;;;21.90;99.90;;;;;;5055921;28;20480;-79
2022/05/08 12:07:24;;;;;;;2.47;2.37;;;21.90;99.90;;;;;;5062671;28;20958;-79
2022/05/08 12:09:56;;;;;;;2.77;2.57;;;21.90;99.90;;;;;;5060693;28;20459;-78
2022/05/08 12:12:27;;;;;;;2.80;2.60;;;22.00;99.90;;;;;;5062204;28;20513;-79
2022/05/08 12:15:01;;;;;;;2.53;2.33;;;22.00;99.90;;;;;;5062554;28;20508;-79
2022/05/08 12:17:31;;;;;;;2.60;2.40;;;22.10;99.90;;;;;;5060250;28;20459;-79
2022/05/08 12:20:01;;;;;;;3.23;2.97;;;22.10;99.90;;;;;;5061543;28;20463;-80
2022/05/08 12:22:30;;;;;;;3.00;2.77;;;22.20;99.90;;;;;;5061142;28;20566;-79
2022/05/08 12:24:59;;;;;;;4.10;2.43;;;22.20;99.90;;;;;;5059153;28;20483;-79
2022/05/08 12:27:29;;;;;;;3.20;2.77;;;22.20;99.90;;;;;;5060451;28;21263;-78
2022/05/08 12:29:58;;;;;;;2.80;2.60;;;22.20;99.90;;;;;;5053483;28;20503;-80
2022/05/08 12:32:27;;;;;;;2.60;2.40;;;22.20;99.90;;;;;;5064453;28;20481;-79
2022/05/08 12:34:57;;;;;;;2.50;2.30;;;22.20;99.90;;;;;;5068587;28;20474;-79
2022/05/08 12:37:28;;;;;;;2.70;2.50;;;22.20;99.90;;;;;;5078918;28;20489;-79
2022/05/08 12:39:56;;;;;;;2.50;2.13;;;22.20;99.90;;;;;;5072519;28;20455;-79
2022/05/08 12:42:25;;;;;;;2.90;2.27;;;22.10;99.90;;;;;;5061367;28;20508;-80
2022/05/08 12:44:53;;;;;;;3.70;2.20;;;22.10;99.90;;;;;;5062225;28;21066;-79
2022/05/08 12:47:21;;;;;;;3.33;2.20;;;22.10;99.90;;;;;;5068668;28;20453;-79
2022/05/08 12:49:49;;;;;;;2.10;2.00;;;22.00;99.90;;;;;;5067559;28;20559;-79
2022/05/08 12:52:18;;;;;;;2.07;1.97;;;22.00;99.90;;;;;;5076830;28;20477;-79
2022/05/08 12:54:48;;;;;;;1.67;1.57;;;22.00;99.90;;;;;;5067908;28;20835;-79
2022/05/08 12:59:42;;;;;;;2.30;1.93;;;22.00;99.90;;;;;;5068001;28;20460;-79
2022/05/08 13:00:05;;;;;;;2.77;1.83;;;22.00;99.90;;;;;;5067655;28;20518;-79
2022/05/08 13:02:33;;;;;;;1.80;1.70;;;22.00;99.90;;;;;;5068146;28;20539;-79
2022/05/08 13:05:02;;;;;;;1.93;1.70;;;22.00;99.90;;;;;;5067820;28;21045;-78
2022/05/08 13:07:31;;;;;;;2.80;1.83;;;22.10;99.90;;;;;;5066450;28;20453;-79
2022/05/08 13:10:01;;;;;;;2.03;1.70;;;22.20;99.90;;;;;;5062361;28;20490;-78
2022/05/08 13:12:29;;;;;;;3.23;2.03;;;22.20;99.90;;;;;;5051305;28;20486;-79
2022/05/08 13:14:57;;;;;;;1.93;1.77;;;22.20;99.90;;;;;;5067619;28;20439;-79
2022/05/08 13:17:26;;;;;;;1.87;1.67;;;22.20;99.90;;;;;;5074085;28;20989;-79
2022/05/08 13:19:56;;;;;;;2.20;2.10;;;22.30;99.90;;;;;;5059674;28;20542;-79
2022/05/08 13:22:25;;;;;;;1.90;1.80;;;22.40;99.90;;;;;;5064970;28;21013;-79
2022/05/08 13:25:01;;;;;;;2.23;2.10;;;22.50;99.90;;;;;;5060292;28;20484;-79
2022/05/08 13:27:30;;;;;;;1.87;1.67;;;22.50;99.90;;;;;;5067595;28;20451;-79
2022/05/08 13:29:59;;;;;;;2.17;1.97;;;22.50;99.90;;;;;;5074982;28;20473;-80